Terminal Aerodrome Forecast
Issued by NWS

Home | Current Version | Previous Version | Text Only | Print | Product List | Glossary On
Versions: 1 2 3 4 5 6 7 8 9 10 11 12
332
FTUS42 KTAE 270520
TAFDHN
TAF
KDHN 270520Z 2706/2806 VRB04KT P6SM FEW050 SCT250
     FM271500 22011KT P6SM VCSH SCT050 BKN250=

USA.gov is the U.S. government's official web portal to all federal, state and local government web resources and services.